Time;durP1;ratioP1;P1;durP2;ratioP2;P2;SDS_P1;SDS_P2;PMS_P1;PMS_P2;Temp;Humidity;BMP_temperature;BMP_pressure;BME280_temperature;BME280_humidity;BME280_pressure;Samples;Min_cycle;Max_cycle;Signal;HPM_P1;HPM_P2
2022/10/02 00:04:37;;;;;;;19.33;5.63;;;11.00;99.90;;;;;;6274696;22;20046;-84
2022/10/02 00:07:08;;;;;;;20.63;6.63;;;11.20;99.90;;;;;;6248597;22;20065;-83
2022/10/02 00:09:57;;;;;;;18.75;5.90;;;11.20;99.90;;;;;;6249040;22;20015;-83
2022/10/02 00:12:28;;;;;;;17.40;4.78;;;11.20;99.90;;;;;;6275046;22;20015;-83
2022/10/02 00:15:11;;;;;;;14.45;4.85;;;11.20;99.90;;;;;;6248800;22;20057;-84
2022/10/02 00:17:42;;;;;;;17.15;5.80;;;11.20;99.90;;;;;;6275270;22;20042;-84
2022/10/02 00:20:22;;;;;;;21.25;4.47;;;11.30;99.90;;;;;;6248463;22;20098;-83
2022/10/02 00:22:58;;;;;;;15.45;4.20;;;11.30;99.90;;;;;;6248670;22;20096;-83
2022/10/02 00:25:56;;;;;;;16.95;4.50;;;11.30;99.90;;;;;;6274985;22;20087;-83
2022/10/02 00:28:34;;;;;;;15.30;5.03;;;11.20;99.90;;;;;;6275729;22;20016;-83
2022/10/02 00:30:59;;;;;;;13.88;4.90;;;11.20;99.90;;;;;;6276065;22;20012;-84
2022/10/02 00:33:46;;;;;;;23.83;6.97;;;11.20;99.90;;;;;;6274889;22;20038;-84
2022/10/02 00:36:31;;;;;;;18.77;4.50;;;11.20;99.90;;;;;;6248247;22;20007;-84
2022/10/02 00:39:25;;;;;;;19.48;6.10;;;11.20;99.90;;;;;;6247684;22;20026;-83
2022/10/02 00:42:06;;;;;;;19.70;5.40;;;11.20;99.90;;;;;;6206772;22;20077;-83
2022/10/02 00:44:31;;;;;;;21.75;6.07;;;11.20;99.90;;;;;;6248661;22;20106;-83
2022/10/02 00:46:59;;;;;;;21.27;6.20;;;11.20;99.90;;;;;;6275069;22;20051;-83
2022/10/02 00:49:28;;;;;;;17.88;5.10;;;11.20;99.90;;;;;;6248211;22;20627;-83
2022/10/02 00:52:22;;;;;;;18.52;5.25;;;11.20;99.90;;;;;;6248616;22;20104;-84
2022/10/02 00:55:06;;;;;;;17.65;4.80;;;11.10;99.90;;;;;;6274416;22;20401;-83
2022/10/02 00:57:38;;;;;;;16.75;4.28;;;11.10;99.90;;;;;;6248115;22;20011;-83
2022/10/02 01:00:16;;;;;;;17.15;4.82;;;11.10;99.90;;;;;;6247386;22;20012;-83
2022/10/02 01:02:57;;;;;;;23.13;5.68;;;11.30;99.90;;;;;;6248033;22;20020;-84
2022/10/02 01:05:24;;;;;;;19.55;4.57;;;11.10;99.90;;;;;;6248031;22;20343;-83
2022/10/02 01:07:52;;;;;;;15.80;4.78;;;11.20;99.90;;;;;;6247221;22;20019;-83
2022/10/02 01:10:19;;;;;;;19.83;5.05;;;11.10;99.90;;;;;;6248140;22;20018;-83
2022/10/02 01:12:45;;;;;;;13.85;3.75;;;11.10;99.90;;;;;;6248523;22;20340;-83
2022/10/02 01:15:20;;;;;;;17.33;4.53;;;11.10;99.90;;;;;;6247021;22;20019;-84
2022/10/02 01:17:49;;;;;;;15.30;4.40;;;11.20;99.90;;;;;;6254553;22;20006;-83
2022/10/02 01:20:30;;;;;;;18.52;4.85;;;11.20;99.90;;;;;;6286116;22;20011;-84
2022/10/02 01:23:06;;;;;;;18.23;4.47;;;11.10;99.90;;;;;;6274773;22;20018;-83
2022/10/02 01:25:32;;;;;;;16.77;4.43;;;11.20;99.90;;;;;;6302155;22;20051;-82
2022/10/02 01:27:58;;;;;;;19.65;4.60;;;11.20;99.90;;;;;;6252428;22;20309;-83
2022/10/02 01:30:24;;;;;;;17.20;5.00;;;11.10;99.90;;;;;;6250807;22;20089;-83
2022/10/02 01:32:56;;;;;;;17.20;4.68;;;11.10;99.90;;;;;;6251390;22;20020;-84
2022/10/02 01:35:25;;;;;;;17.35;4.13;;;11.00;99.90;;;;;;6279697;22;20098;-83
2022/10/02 01:37:52;;;;;;;18.73;4.43;;;11.00;99.90;;;;;;6249318;22;20033;-83
2022/10/02 01:40:22;;;;;;;16.70;4.03;;;11.00;99.90;;;;;;6248789;22;20020;-84
2022/10/02 01:42:49;;;;;;;16.95;3.97;;;11.00;99.90;;;;;;6275352;22;20097;-84
2022/10/02 01:45:15;;;;;;;19.60;4.43;;;11.00;99.90;;;;;;6247849;22;20022;-83
2022/10/02 01:48:08;;;;;;;15.20;4.13;;;11.00;99.90;;;;;;6276067;22;20015;-83
2022/10/02 01:50:40;;;;;;;16.42;4.53;;;11.10;99.90;;;;;;6247500;22;20486;-84
2022/10/02 01:53:18;;;;;;;20.42;4.22;;;11.10;99.90;;;;;;6248354;22;20019;-83
2022/10/02 01:56:29;;;;;;;16.00;4.47;;;11.10;99.90;;;;;;6275892;22;20016;-83
2022/10/02 01:59:05;;;;;;;18.27;4.55;;;11.20;99.90;;;;;;6098015;23;20028;-83
2022/10/02 02:01:46;;;;;;;17.85;4.07;;;11.20;99.90;;;;;;6227551;22;20016;-84
2022/10/02 02:04:22;;;;;;;19.45;4.65;;;11.30;99.90;;;;;;6274474;22;20067;-83
2022/10/02 02:06:56;;;;;;;18.40;4.40;;;11.30;99.90;;;;;;6276510;22;20016;-84
2022/10/02 02:09:57;;;;;;;17.05;4.50;;;12.10;99.90;;;;;;6276577;22;20026;-84
2022/10/02 02:12:55;;;;;;;18.27;4.50;;;11.30;99.90;;;;;;6269276;22;20019;-84
2022/10/02 02:15:29;;;;;;;21.77;4.22;;;11.30;99.90;;;;;;6262591;22;20024;-84
2022/10/02 02:17:59;;;;;;;16.30;4.20;;;11.30;99.90;;;;;;6249595;22;20047;-84
2022/10/02 02:20:35;;;;;;;18.00;4.45;;;11.30;99.90;;;;;;6277189;22;20051;-84
2022/10/02 02:23:07;;;;;;;17.20;4.47;;;11.30;99.90;;;;;;6277692;22;20034;-83
2022/10/02 02:25:42;;;;;;;17.17;4.10;;;11.30;99.90;;;;;;6249142;22;20016;-83
2022/10/02 02:28:11;;;;;;;14.45;4.32;;;11.30;99.90;;;;;;6249483;22;20460;-83
2022/10/02 02:30:40;;;;;;;16.25;4.13;;;11.30;99.90;;;;;;6277289;22;20054;-83
2022/10/02 02:33:26;;;;;;;16.30;4.30;;;11.30;99.90;;;;;;6248636;22;20086;-83
2022/10/02 02:35:57;;;;;;;14.82;4.28;;;11.30;99.90;;;;;;6249170;22;20019;-83
2022/10/02 02:38:32;;;;;;;15.02;4.00;;;11.30;99.90;;;;;;6248394;22;20019;-83
2022/10/02 02:41:04;;;;;;;19.25;4.30;;;11.20;99.90;;;;;;6276769;22;20011;-83
2022/10/02 02:43:55;;;;;;;17.35;3.88;;;11.90;99.90;;;;;;6249344;22;20416;-83
2022/10/02 02:46:33;;;;;;;17.40;4.00;;;11.20;99.90;;;;;;6248450;22;20114;-83
2022/10/02 02:49:09;;;;;;;13.98;3.85;;;12.50;99.90;;;;;;6249780;22;20016;-83
2022/10/02 02:51:41;;;;;;;17.98;4.20;;;11.80;99.90;;;;;;6249937;22;20083;-83
2022/10/02 02:54:19;;;;;;;18.10;4.40;;;11.20;99.90;;;;;;6276180;22;20016;-83
2022/10/02 02:56:47;;;;;;;19.35;4.38;;;11.20;99.90;;;;;;6249815;22;20019;-83
2022/10/02 02:59:14;;;;;;;18.45;4.28;;;11.20;99.90;;;;;;6275574;22;20023;-83
2022/10/02 03:01:43;;;;;;;21.85;4.47;;;11.10;99.90;;;;;;6277110;22;20095;-83
2022/10/02 03:04:11;;;;;;;14.27;3.80;;;11.10;99.90;;;;;;6249031;22;20051;-83
2022/10/02 03:06:44;;;;;;;17.00;3.90;;;11.10;99.90;;;;;;6248708;22;20015;-83
2022/10/02 03:09:19;;;;;;;15.77;4.50;;;11.10;99.90;;;;;;6249124;22;20344;-83
2022/10/02 03:12:10;;;;;;;16.85;4.32;;;11.10;99.90;;;;;;6249246;22;20085;-83
2022/10/02 03:14:43;;;;;;;17.02;4.18;;;11.60;99.90;;;;;;6248883;22;20012;-83
2022/10/02 03:17:28;;;;;;;15.18;3.90;;;11.10;99.90;;;;;;6276503;22;20016;-83
2022/10/02 03:20:32;;;;;;;15.68;3.67;;;11.10;99.90;;;;;;6249490;22;20039;-84
2022/10/02 03:23:26;;;;;;;15.30;3.80;;;11.20;99.90;;;;;;6245639;22;20474;-84
2022/10/02 03:26:03;;;;;;;;;;;11.20;99.90;;;;;;6251909;22;20027;-83
2022/10/02 03:28:42;;;;;;;17.58;3.88;;;11.10;99.90;;;;;;6278598;22;19922;-84
2022/10/02 03:31:10;;;;;;;14.63;3.10;;;11.20;99.90;;;;;;6248891;22;20027;-83
2022/10/02 03:33:38;;;;;;;13.38;3.10;;;11.20;99.90;;;;;;6249449;22;20050;-83
2022/10/02 03:36:04;;;;;;;14.90;3.60;;;11.20;99.90;;;;;;6248191;22;20022;-83
2022/10/02 03:38:31;;;;;;;14.52;3.30;;;11.20;99.90;;;;;;6248995;22;20015;-83
2022/10/02 03:40:57;;;;;;;16.00;3.53;;;11.20;99.90;;;;;;6249059;22;20079;-83
2022/10/02 03:43:25;;;;;;;13.60;3.58;;;11.10;99.90;;;;;;6247848;22;20047;-83
2022/10/02 03:45:51;;;;;;;16.35;3.30;;;11.10;99.90;;;;;;6248406;22;20011;-83
2022/10/02 03:48:16;;;;;;;16.98;3.58;;;11.10;99.90;;;;;;6248685;22;20145;-83
2022/10/02 03:50:42;;;;;;;13.20;3.22;;;11.10;99.90;;;;;;6248484;22;20020;-83
2022/10/02 03:53:17;;;;;;;13.18;3.50;;;11.00;99.90;;;;;;6248378;22;20391;-83
2022/10/02 03:55:59;;;;;;;17.15;3.55;;;11.00;99.90;;;;;;6275589;22;20074;-84
2022/10/02 03:58:24;;;;;;;12.30;2.90;;;11.80;99.90;;;;;;6248941;22;20011;-83
2022/10/02 04:00:50;;;;;;;12.25;2.90;;;11.70;99.90;;;;;;6276813;22;20073;-84
2022/10/02 04:03:32;;;;;;;14.30;3.00;;;10.90;99.90;;;;;;6247270;22;20082;-84
2022/10/02 04:06:21;;;;;;;13.32;3.25;;;10.90;99.90;;;;;;6248041;22;20016;-84
2022/10/02 04:08:56;;;;;;;13.80;2.88;;;10.90;99.90;;;;;;6248482;22;20012;-84
2022/10/02 04:11:42;;;;;;;9.73;2.83;;;10.80;99.90;;;;;;6247682;22;20015;-84
2022/10/02 04:14:28;;;;;;;14.48;3.25;;;10.80;99.90;;;;;;6248579;22;20019;-83
2022/10/02 04:17:26;;;;;;;13.40;2.90;;;10.80;99.90;;;;;;6247574;22;20435;-83
2022/10/02 04:20:09;;;;;;;12.68;2.90;;;11.00;99.90;;;;;;6276340;22;20130;-83
2022/10/02 04:22:40;;;;;;;15.23;3.30;;;10.80;99.90;;;;;;6248898;22;20015;-83
2022/10/02 04:25:11;;;;;;;13.93;3.42;;;10.80;99.90;;;;;;6274609;22;20016;-83
2022/10/02 04:27:43;;;;;;;16.13;3.25;;;10.70;99.90;;;;;;6248294;22;20011;-83
2022/10/02 04:30:15;;;;;;;15.68;2.92;;;10.70;99.90;;;;;;6248332;22;20022;-83
2022/10/02 04:32:41;;;;;;;15.15;3.60;;;10.60;99.90;;;;;;6247877;22;20058;-84
2022/10/02 04:35:18;;;;;;;16.35;3.78;;;11.40;99.90;;;;;;6248572;22;20022;-84
2022/10/02 04:37:56;;;;;;;14.55;3.33;;;10.70;99.90;;;;;;6248106;22;20058;-83
2022/10/02 04:40:58;;;;;;;14.40;3.55;;;10.60;99.90;;;;;;6275835;22;20095;-83
2022/10/02 04:43:29;;;;;;;15.45;3.42;;;10.70;99.90;;;;;;6275425;22;20022;-84
2022/10/02 04:46:20;;;;;;;17.58;4.43;;;10.70;99.90;;;;;;6275171;22;20014;-83
2022/10/02 04:48:49;;;;;;;12.80;4.00;;;10.60;99.90;;;;;;6248661;22;20016;-83
2022/10/02 04:51:23;;;;;;;16.25;4.20;;;10.60;99.90;;;;;;6275571;22;20016;-83
2022/10/02 04:54:00;;;;;;;18.85;4.10;;;10.60;99.90;;;;;;6274981;22;20026;-83
2022/10/02 04:56:49;;;;;;;19.42;3.83;;;10.60;99.90;;;;;;6247216;22;20020;-83
2022/10/02 04:59:28;;;;;;;14.43;4.18;;;10.50;99.90;;;;;;6247105;22;20019;-84
2022/10/02 05:02:01;;;;;;;17.90;4.00;;;10.50;99.90;;;;;;6248169;22;20018;-83
2022/10/02 05:05:08;;;;;;;17.35;4.35;;;10.50;99.90;;;;;;6247921;22;20023;-84
2022/10/02 05:07:43;;;;;;;18.80;3.90;;;10.60;99.90;;;;;;6247918;22;20016;-84
2022/10/02 05:10:26;;;;;;;16.08;4.47;;;10.50;99.90;;;;;;6247946;22;20055;-83
2022/10/02 05:13:19;;;;;;;17.00;4.43;;;10.60;99.90;;;;;;6274683;22;20023;-83
2022/10/02 05:16:19;;;;;;;16.33;4.28;;;10.60;99.90;;;;;;6248044;22;20030;-83
2022/10/02 05:19:03;;;;;;;16.70;4.18;;;10.50;99.90;;;;;;6247999;22;20351;-84
2022/10/02 05:21:39;;;;;;;;;;;10.50;99.90;;;;;;6247487;22;20023;-83
2022/10/02 05:24:12;;;;;;;19.02;4.85;;;10.50;99.90;;;;;;6275571;22;19961;-83
2022/10/02 05:27:05;;;;;;;20.33;4.43;;;10.50;99.90;;;;;;6248383;22;20016;-84
2022/10/02 05:29:52;;;;;;;20.90;4.82;;;10.50;99.90;;;;;;6248170;22;20024;-84
2022/10/02 05:32:30;;;;;;;18.90;4.32;;;10.50;99.90;;;;;;6248000;22;20019;-83
2022/10/02 05:35:20;;;;;;;18.55;4.70;;;10.60;99.90;;;;;;6274381;22;20452;-83
2022/10/02 05:38:05;;;;;;;18.25;4.80;;;10.50;99.90;;;;;;6276193;22;20091;-83
2022/10/02 05:41:03;;;;;;;18.45;4.55;;;10.50;99.90;;;;;;6250371;22;20012;-84
2022/10/02 05:43:47;;;;;;;19.75;4.75;;;10.60;99.90;;;;;;6250031;22;20015;-84
2022/10/02 05:46:21;;;;;;;15.05;4.88;;;10.70;99.90;;;;;;6277353;22;20012;-84
2022/10/02 05:48:59;;;;;;;19.33;4.93;;;10.60;99.90;;;;;;6249275;22;20015;-84
2022/10/02 05:51:40;;;;;;;16.80;4.53;;;10.50;99.90;;;;;;6277174;22;20047;-84
2022/10/02 05:54:19;;;;;;;21.33;4.40;;;10.60;99.90;;;;;;6277059;22;20142;-84
2022/10/02 05:56:57;;;;;;;16.27;4.20;;;10.50;99.90;;;;;;6275483;22;20023;-84
2022/10/02 05:59:31;;;;;;;15.50;4.65;;;10.50;99.90;;;;;;6277276;22;20019;-84
2022/10/02 06:01:59;;;;;;;;;;;10.50;99.90;;;;;;6277534;22;20376;-84
2022/10/02 06:04:32;;;;;;;20.60;5.00;;;10.60;99.90;;;;;;6250214;22;20717;-84
2022/10/02 06:07:11;;;;;;;14.40;4.07;;;10.60;99.90;;;;;;6277039;22;20099;-84
2022/10/02 06:09:46;;;;;;;17.05;5.15;;;10.50;99.90;;;;;;6248947;22;20066;-84
2022/10/02 06:12:32;;;;;;;17.17;4.40;;;10.60;99.90;;;;;;6249635;22;20024;-84
2022/10/02 06:15:01;;;;;;;21.73;5.13;;;10.60;99.90;;;;;;6277337;22;20015;-84
2022/10/02 06:17:39;;;;;;;15.45;4.32;;;10.90;99.90;;;;;;6275764;22;20451;-84
2022/10/02 06:20:25;;;;;;;15.50;4.45;;;10.60;99.90;;;;;;6249974;22;20086;-84
2022/10/02 06:23:09;;;;;;;17.25;4.93;;;10.60;99.90;;;;;;6249698;22;20015;-84
2022/10/02 06:25:48;;;;;;;18.80;4.55;;;10.60;99.90;;;;;;6249845;22;20058;-84
2022/10/02 06:28:34;;;;;;;17.13;4.90;;;10.60;99.90;;;;;;6276569;22;20313;-84
2022/10/02 06:31:17;;;;;;;30.05;12.43;;;10.70;99.90;;;;;;6248861;22;20012;-84
2022/10/02 06:33:43;;;;;;;22.40;6.72;;;10.70;99.90;;;;;;6250017;22;20011;-84
2022/10/02 06:36:43;;;;;;;20.40;8.55;;;10.80;99.90;;;;;;6276866;22;20474;-84
2022/10/02 06:39:21;;;;;;;21.05;6.32;;;10.80;99.90;;;;;;6248439;22;20026;-82
2022/10/02 06:42:05;;;;;;;17.67;6.30;;;10.90;99.90;;;;;;6277220;22;20324;-82
2022/10/02 06:44:34;;;;;;;;;;;11.00;99.90;;;;;;6276583;22;20324;-83
2022/10/02 06:47:05;;;;;;;23.38;5.20;;;11.00;99.90;;;;;;6250019;22;19919;-82
2022/10/02 06:49:47;;;;;;;16.67;5.10;;;11.10;99.90;;;;;;6249760;22;20034;-84
2022/10/02 06:52:31;;;;;;;18.75;4.47;;;11.10;99.90;;;;;;6248476;22;20020;-84
2022/10/02 06:55:19;;;;;;;14.88;4.05;;;11.30;99.90;;;;;;6249480;22;20039;-84
2022/10/02 06:57:55;;;;;;;16.42;4.43;;;11.30;99.90;;;;;;6249745;22;20015;-84
2022/10/02 07:00:21;;;;;;;15.95;4.43;;;11.40;99.90;;;;;;6248605;22;20008;-84
2022/10/02 07:03:21;;;;;;;19.08;4.38;;;11.40;99.90;;;;;;6276921;22;20055;-85
2022/10/02 07:05:59;;;;;;;17.52;4.15;;;11.50;99.90;;;;;;6249152;22;20035;-84
2022/10/02 07:08:38;;;;;;;19.40;4.13;;;11.60;99.90;;;;;;6276670;22;20050;-83
2022/10/02 07:11:27;;;;;;;17.98;4.40;;;11.70;99.90;;;;;;6249090;22;20404;-83
2022/10/02 07:14:19;;;;;;;21.50;4.68;;;11.90;99.90;;;;;;6222321;22;20026;-83
2022/10/02 07:16:59;;;;;;;15.25;4.88;;;11.80;99.90;;;;;;6276049;22;20474;-85
2022/10/02 07:19:43;;;;;;;15.88;4.35;;;11.90;99.90;;;;;;6274859;22;20439;-83
2022/10/02 07:22:37;;;;;;;19.02;4.75;;;11.90;99.90;;;;;;6276625;22;20439;-83
2022/10/02 07:31:30;;;;;;;17.67;4.35;;;12.10;99.90;;;;;;6248784;22;20027;-83
2022/10/02 07:34:14;;;;;;;17.45;4.13;;;12.30;99.90;;;;;;6247756;22;20046;-83
2022/10/02 07:36:42;;;;;;;19.17;6.97;;;12.40;99.90;;;;;;6249461;22;20083;-83
2022/10/02 07:39:42;;;;;;;20.85;4.82;;;12.50;99.90;;;;;;6275115;22;20392;-83
2022/10/02 07:42:07;;;;;;;28.35;10.45;;;12.60;99.90;;;;;;6247632;22;20016;-83
2022/10/02 07:45:06;;;;;;;17.52;6.53;;;12.70;99.90;;;;;;6248842;22;20012;-83
2022/10/02 07:47:50;;;;;;;17.55;6.45;;;13.50;99.90;;;;;;6248053;22;20051;-82
2022/10/02 07:50:25;;;;;;;13.75;4.68;;;12.90;99.90;;;;;;6275337;22;20054;-84
2022/10/02 07:53:07;;;;;;;16.35;4.10;;;13.00;99.90;;;;;;6248649;22;20020;-83
2022/10/02 07:55:40;;;;;;;14.65;4.38;;;13.10;99.90;;;;;;6247557;22;20444;-82
2022/10/02 07:58:32;;;;;;;14.07;3.92;;;13.30;99.90;;;;;;6246446;22;20020;-82
2022/10/02 08:01:05;;;;;;;13.18;3.95;;;13.50;99.90;;;;;;6244873;22;20020;-82
2022/10/02 08:03:50;;;;;;;16.95;3.92;;;13.60;99.90;;;;;;6247322;22;20416;-83
2022/10/02 08:06:18;;;;;;;14.43;3.67;;;13.70;99.90;;;;;;6248305;22;20362;-82
2022/10/02 08:09:07;;;;;;;13.13;3.22;;;13.80;99.90;;;;;;6247615;22;20077;-82
2022/10/02 08:12:04;;;;;;;18.02;3.95;;;14.10;99.90;;;;;;6275535;22;20016;-82
2022/10/02 08:14:41;;;;;;;13.95;3.67;;;14.20;99.90;;;;;;6248257;22;20068;-82
2022/10/02 08:17:26;;;;;;;20.15;5.53;;;14.10;99.90;;;;;;6247646;22;20098;-82
2022/10/02 08:19:56;;;;;;;11.73;3.15;;;14.00;99.90;;;;;;6248371;22;20019;-82
2022/10/02 08:22:38;;;;;;;15.18;4.00;;;14.00;99.90;;;;;;6247909;22;20011;-82
2022/10/02 08:25:18;;;;;;;19.02;5.20;;;13.90;99.90;;;;;;6275536;22;20113;-82
2022/10/02 08:27:47;;;;;;;18.80;5.13;;;13.90;99.90;;;;;;6248641;22;20053;-82
2022/10/02 08:30:14;;;;;;;17.77;4.50;;;13.90;99.90;;;;;;6246801;22;20023;-82
2022/10/02 08:32:40;;;;;;;15.45;5.03;;;14.00;99.90;;;;;;6275776;22;20019;-83
2022/10/02 08:35:15;;;;;;;16.58;4.93;;;14.00;99.90;;;;;;6248034;22;20099;-82
2022/10/02 08:38:20;;;;;;;19.88;6.55;;;14.10;99.90;;;;;;6275025;22;20012;-82
2022/10/02 08:41:08;;;;;;;15.57;3.88;;;14.20;99.90;;;;;;6274972;22;20019;-82
2022/10/02 08:43:49;;;;;;;17.42;4.55;;;14.30;99.90;;;;;;6248167;22;20019;-83
2022/10/02 08:46:46;;;;;;;15.82;3.63;;;14.40;99.90;;;;;;6247869;22;20020;-83
2022/10/02 08:49:41;;;;;;;15.88;3.85;;;14.40;99.90;;;;;;6247623;22;20022;-82
2022/10/02 08:52:34;;;;;;;16.95;3.80;;;14.50;99.90;;;;;;6274835;22;20051;-82
2022/10/02 08:55:19;;;;;;;16.87;3.97;;;14.60;99.90;;;;;;6248447;22;20451;-82
2022/10/02 08:58:03;;;;;;;;;;;14.80;99.90;;;;;;6276317;22;20022;-82
2022/10/02 09:01:02;;;;;;;13.88;2.88;;;14.80;99.90;;;;;;6248470;22;20047;-83
2022/10/02 09:03:32;;;;;;;16.05;3.50;;;14.80;99.90;;;;;;6248067;22;20078;-82
2022/10/02 09:06:35;;;;;;;16.80;3.85;;;15.00;99.90;;;;;;6247553;22;20016;-82
2022/10/02 09:09:33;;;;;;;14.67;2.80;;;15.00;99.90;;;;;;6248009;22;20020;-82
2022/10/02 09:12:21;;;;;;;14.15;3.50;;;15.20;99.90;;;;;;6247729;22;20785;-82
2022/10/02 09:20:03;;;;;;;15.07;3.25;;;15.10;99.90;;;;;;6217184;23;20020;-81
2022/10/02 09:22:46;;;;;;;12.90;3.17;;;15.30;99.90;;;;;;6246378;23;20027;-82
2022/10/02 09:25:27;;;;;;;12.38;2.72;;;15.40;99.90;;;;;;6245837;23;20023;-82
2022/10/02 09:28:16;;;;;;;14.45;3.55;;;15.60;99.90;;;;;;6245525;23;20031;-81
2022/10/02 09:31:10;;;;;;;12.35;3.38;;;15.50;99.90;;;;;;6245014;23;20020;-83
2022/10/02 09:34:11;;;;;;;11.60;3.03;;;15.50;99.90;;;;;;6219286;23;20448;-81
2022/10/02 09:37:07;;;;;;;12.32;3.35;;;15.50;99.90;;;;;;6247501;23;20016;-82
2022/10/02 09:39:57;;;;;;;16.38;3.15;;;15.50;99.90;;;;;;6245495;23;20340;-84
2022/10/02 09:42:52;;;;;;;13.55;3.03;;;15.40;99.90;;;;;;6246409;23;20027;-82
2022/10/02 09:45:50;;;;;;;14.63;2.83;;;15.40;99.90;;;;;;6244499;23;20019;-82
2022/10/02 09:48:39;;;;;;;16.15;3.33;;;15.50;99.90;;;;;;6244050;23;20020;-83
2022/10/02 09:51:28;;;;;;;15.52;2.72;;;15.70;99.90;;;;;;6244818;23;20499;-82
2022/10/02 09:54:17;;;;;;;10.70;2.40;;;16.00;99.90;;;;;;6242507;23;20016;-82
2022/10/02 09:56:59;;;;;;;13.57;2.55;;;16.20;99.90;;;;;;6243429;23;20436;-82
2022/10/02 09:59:30;;;;;;;13.75;2.75;;;16.20;99.90;;;;;;6217902;23;20468;-82
2022/10/02 10:02:27;;;;;;;15.75;2.70;;;16.90;99.90;;;;;;6244445;23;20008;-82
2022/10/02 10:05:08;;;;;;;14.38;2.92;;;16.10;99.90;;;;;;6218367;23;20024;-83
2022/10/02 10:07:56;;;;;;;11.10;3.15;;;16.20;99.90;;;;;;6243087;23;20012;-82
2022/10/02 10:10:58;;;;;;;13.63;2.85;;;16.30;99.90;;;;;;6241658;23;20487;-82
2022/10/02 10:13:36;;;;;;;14.20;2.65;;;16.30;99.90;;;;;;6243792;23;20024;-81
2022/10/02 10:16:40;;;;;;;12.18;2.63;;;16.40;99.90;;;;;;6244276;23;20468;-81
2022/10/02 10:19:31;;;;;;;12.50;3.03;;;16.20;99.90;;;;;;6245169;23;20020;-82
2022/10/02 10:22:19;;;;;;;12.23;2.65;;;16.10;99.90;;;;;;6242678;23;20099;-82
2022/10/02 10:25:02;;;;;;;13.82;2.85;;;16.00;99.90;;;;;;6242789;23;20538;-82
2022/10/02 10:27:46;;;;;;;11.13;2.40;;;16.00;99.90;;;;;;6244728;23;20016;-83
2022/10/02 10:30:33;;;;;;;13.10;2.90;;;15.80;99.90;;;;;;6242262;23;20019;-82
2022/10/02 10:33:07;;;;;;;9.75;2.45;;;15.30;99.90;;;;;;6245063;23;20024;-82
2022/10/02 10:35:44;;;;;;;;;;;15.00;99.90;;;;;;6245701;23;20083;-82
2022/10/02 10:38:51;;;;;;;15.60;2.60;;;14.60;99.90;;;;;;6243679;23;20314;-82
2022/10/02 10:41:41;;;;;;;12.45;2.45;;;14.00;99.90;;;;;;6233282;23;20016;-82
2022/10/02 10:44:44;;;;;;;14.45;3.03;;;14.40;99.90;;;;;;6241270;23;20047;-82
2022/10/02 10:47:37;;;;;;;12.05;2.97;;;14.30;99.90;;;;;;6244472;23;20020;-82
2022/10/02 10:50:23;;;;;;;19.08;5.07;;;14.40;99.90;;;;;;6244777;23;20022;-82
2022/10/02 10:53:10;;;;;;;14.00;6.18;;;14.40;99.90;;;;;;6244030;23;20024;-83
2022/10/02 10:56:01;;;;;;;13.25;3.33;;;14.20;99.90;;;;;;6242965;23;20019;-82
2022/10/02 10:58:43;;;;;;;15.10;3.08;;;14.20;99.90;;;;;;6241278;23;20478;-83
2022/10/02 11:01:17;;;;;;;15.15;3.42;;;14.20;99.90;;;;;;6240600;23;20016;-83
2022/10/02 11:04:25;;;;;;;15.13;3.58;;;14.10;99.90;;;;;;6245289;23;20020;-83
2022/10/02 11:07:33;;;;;;;13.50;3.40;;;14.20;99.90;;;;;;6243980;23;20024;-83
2022/10/02 11:10:31;;;;;;;16.17;3.25;;;14.30;99.90;;;;;;6246652;23;20079;-82
2022/10/02 11:13:26;;;;;;;15.50;3.10;;;14.60;99.90;;;;;;6242928;23;20379;-83
2022/10/02 11:16:05;;;;;;;11.95;3.00;;;15.00;99.90;;;;;;6218977;23;20436;-83
2022/10/02 11:19:03;;;;;;;14.27;2.88;;;15.30;99.90;;;;;;6243310;23;20099;-83
2022/10/02 11:22:06;;;;;;;12.20;2.95;;;15.60;99.90;;;;;;6243472;23;20504;-84
2022/10/02 11:24:54;;;;;;;14.25;3.35;;;15.90;99.90;;;;;;6241918;23;20441;-82
2022/10/02 11:27:28;;;;;;;11.32;2.65;;;16.10;99.90;;;;;;6243130;23;20020;-83
2022/10/02 11:30:19;;;;;;;13.00;3.17;;;16.90;99.90;;;;;;6242824;23;20024;-83
2022/10/02 11:33:34;;;;;;;16.05;4.13;;;16.50;99.90;;;;;;6241423;23;20039;-82
2022/10/02 11:36:41;;;;;;;18.77;3.35;;;16.70;99.90;;;;;;6241876;23;20034;-83
2022/10/02 11:39:37;;;;;;;11.98;3.13;;;17.10;99.90;;;;;;6242860;23;20026;-83
2022/10/02 11:42:05;;;;;;;14.43;3.25;;;17.40;99.90;;;;;;6200508;23;20045;-83
2022/10/02 11:44:37;;;;;;;14.18;2.67;;;17.50;99.90;;;;;;6242027;23;20091;-83
2022/10/02 11:47:03;;;;;;;13.52;3.00;;;17.80;99.90;;;;;;6241938;23;20437;-83
2022/10/02 11:50:00;;;;;;;15.63;2.67;;;17.80;99.90;;;;;;6241151;23;20028;-82
2022/10/02 11:53:00;;;;;;;13.50;2.88;;;17.80;99.90;;;;;;6243949;23;20016;-83
2022/10/02 11:55:44;;;;;;;12.27;2.50;;;17.90;99.90;;;;;;6240882;23;20020;-83
2022/10/02 11:58:40;;;;;;;12.75;3.03;;;17.80;99.90;;;;;;6241956;23;20490;-83
2022/10/02 12:01:40;;;;;;;15.07;2.70;;;17.40;99.90;;;;;;6241409;23;20016;-82
2022/10/02 12:04:29;;;;;;;13.40;2.42;;;16.80;99.90;;;;;;6241515;23;20027;-83
2022/10/02 12:07:19;;;;;;;14.77;2.80;;;16.40;99.90;;;;;;6243219;23;20047;-82
2022/10/02 12:10:19;;;;;;;13.55;2.55;;;16.20;99.90;;;;;;6243206;23;20016;-82
2022/10/02 12:13:01;;;;;;;13.25;2.92;;;15.90;99.90;;;;;;6242525;23;20399;-82
2022/10/02 12:15:33;;;;;;;14.40;3.05;;;15.80;99.90;;;;;;6240884;23;20081;-82
2022/10/02 12:18:01;;;;;;;12.63;2.67;;;15.70;99.90;;;;;;6242349;23;20103;-82
2022/10/02 12:27:43;;;;;;;15.10;2.75;;;15.60;99.90;;;;;;6246538;22;20452;-82
2022/10/02 12:30:49;;;;;;;11.65;2.70;;;15.60;99.90;;;;;;6139600;22;20050;-84
2022/10/02 12:34:02;;;;;;;17.20;4.07;;;15.80;99.90;;;;;;6225270;23;20020;-83
2022/10/02 12:36:37;;;;;;;12.18;2.53;;;16.20;99.90;;;;;;6093927;23;20109;-82
2022/10/02 12:39:13;;;;;;;16.23;3.33;;;16.60;99.90;;;;;;6120789;23;20010;-84
2022/10/02 12:46:58;;;;;;;11.75;2.45;;;17.20;99.90;;;;;;6243361;23;20034;-84
2022/10/02 12:49:46;;;;;;;14.18;3.40;;;18.70;99.90;;;;;;6215643;23;20028;-84
2022/10/02 12:52:54;;;;;;;11.88;2.55;;;17.70;99.90;;;;;;6242348;23;20405;-84
2022/10/02 12:55:57;;;;;;;16.27;2.67;;;17.80;99.90;;;;;;6212534;23;20098;-83
2022/10/02 12:59:15;;;;;;;13.98;2.40;;;17.60;99.90;;;;;;6214815;23;20154;-83
2022/10/02 13:02:27;;;;;;;13.63;2.83;;;16.90;99.90;;;;;;6155659;23;20062;-83
2022/10/02 13:05:30;;;;;;;13.73;2.47;;;17.10;99.90;;;;;;6241830;23;20016;-83
2022/10/02 13:08:14;;;;;;;12.05;2.88;;;16.20;99.90;;;;;;6216433;23;20023;-83
2022/10/02 13:11:06;;;;;;;;;;;15.90;99.90;;;;;;6216388;23;20013;-83
2022/10/02 13:14:04;;;;;;;14.68;2.88;;;15.80;99.90;;;;;;6243436;23;19990;-83
2022/10/02 13:16:30;;;;;;;12.05;2.67;;;15.70;99.90;;;;;;6141707;23;20024;-83
2022/10/02 13:19:11;;;;;;;15.20;3.28;;;16.50;99.90;;;;;;6244203;23;20078;-83
2022/10/02 13:21:47;;;;;;;11.27;2.90;;;16.10;99.90;;;;;;6244940;23;20448;-83
2022/10/02 13:24:54;;;;;;;12.18;3.20;;;16.50;99.90;;;;;;6217417;23;20051;-83
2022/10/02 13:27:48;;;;;;;14.57;2.95;;;16.90;99.90;;;;;;6243519;23;20012;-83
2022/10/02 13:30:17;;;;;;;16.17;2.65;;;17.40;99.90;;;;;;6244462;23;20504;-83
2022/10/02 13:33:13;;;;;;;25.88;13.57;;;17.70;99.90;;;;;;6217061;23;20449;-83
2022/10/02 13:36:17;;;;;;;12.38;3.95;;;17.90;99.90;;;;;;6244766;23;20012;-83
2022/10/02 13:39:09;;;;;;;13.70;3.15;;;18.10;99.90;;;;;;6244425;23;20012;-84
2022/10/02 13:41:57;;;;;;;12.82;2.50;;;18.10;99.90;;;;;;6217726;23;20016;-84
2022/10/02 13:44:41;;;;;;;13.68;2.83;;;17.80;99.90;;;;;;6244210;23;20047;-86
2022/10/02 13:47:21;;;;;;;13.10;2.65;;;17.30;99.90;;;;;;6217850;23;20515;-85
2022/10/02 13:49:59;;;;;;;11.23;2.88;;;16.70;99.90;;;;;;6219634;23;20429;-84
2022/10/02 13:52:24;;;;;;;13.15;3.17;;;16.50;99.90;;;;;;6217724;23;20042;-84
2022/10/02 13:55:17;;;;;;;15.45;2.80;;;16.50;99.90;;;;;;6216151;23;20012;-84
2022/10/02 13:57:59;;;;;;;12.15;3.60;;;15.90;99.90;;;;;;6216925;23;20082;-84
2022/10/02 14:00:36;;;;;;;12.80;3.25;;;15.70;99.90;;;;;;6244087;23;20016;-84
2022/10/02 14:06:00;;;;;;;15.23;7.28;;;15.60;99.90;;;;;;6249638;22;20039;-83
2022/10/02 14:08:41;;;;;;;12.88;5.10;;;16.70;99.90;;;;;;6248015;22;20027;-83
2022/10/02 14:11:28;;;;;;;13.25;5.30;;;16.30;99.90;;;;;;6249154;22;20022;-83
2022/10/02 14:14:27;;;;;;;11.68;2.53;;;17.30;99.90;;;;;;6276971;22;20069;-83
2022/10/02 14:17:11;;;;;;;14.90;2.55;;;16.80;99.90;;;;;;6249509;22;20030;-83
2022/10/02 14:20:04;;;;;;;9.95;2.40;;;17.10;99.90;;;;;;6233740;23;20020;-83
2022/10/02 14:22:36;;;;;;;10.60;2.75;;;17.20;99.90;;;;;;6217168;23;20019;-83
2022/10/02 14:25:26;;;;;;;7.65;1.90;;;17.30;99.90;;;;;;6219125;23;20020;-85